sensor_id;sensor_type;location;lat;lon;timestamp;temperature;humidity
44121;DHT22;29783;52.504;13.478;2022-11-20T00:01:50;0.80;92.90
44121;DHT22;29783;52.504;13.478;2022-11-20T00:04:16;0.90;92.70
44121;DHT22;29783;52.504;13.478;2022-11-20T00:06:42;1.00;91.70
44121;DHT22;29783;52.504;13.478;2022-11-20T00:09:09;0.90;91.20
44121;DHT22;29783;52.504;13.478;2022-11-20T00:11:35;0.90;91.10
44121;DHT22;29783;52.504;13.478;2022-11-20T00:14:02;0.80;91.10
44121;DHT22;29783;52.504;13.478;2022-11-20T00:16:30;0.80;91.30
44121;DHT22;29783;52.504;13.478;2022-11-20T00:18:55;0.80;91.40
44121;DHT22;29783;52.504;13.478;2022-11-20T00:21:26;0.90;91.30
44121;DHT22;29783;52.504;13.478;2022-11-20T00:23:54;0.80;91.10
44121;DHT22;29783;52.504;13.478;2022-11-20T00:26:20;0.80;91.30
44121;DHT22;29783;52.504;13.478;2022-11-20T00:28:52;0.80;91.40
44121;DHT22;29783;52.504;13.478;2022-11-20T00:31:18;0.90;91.20
44121;DHT22;29783;52.504;13.478;2022-11-20T00:33:43;0.80;91.00
44121;DHT22;29783;52.504;13.478;2022-11-20T00:36:15;0.80;91.00
44121;DHT22;29783;52.504;13.478;2022-11-20T00:38:41;0.80;91.10
44121;DHT22;29783;52.504;13.478;2022-11-20T00:41:09;0.80;90.90
44121;DHT22;29783;52.504;13.478;2022-11-20T00:43:35;0.70;90.70
44121;DHT22;29783;52.504;13.478;2022-11-20T00:46:15;0.60;91.20
44121;DHT22;29783;52.504;13.478;2022-11-20T00:48:41;0.70;91.50
44121;DHT22;29783;52.504;13.478;2022-11-20T00:51:07;0.60;91.60
44121;DHT22;29783;52.504;13.478;2022-11-20T00:53:33;0.70;91.60
44121;DHT22;29783;52.504;13.478;2022-11-20T00:56:06;0.80;91.60
44121;DHT22;29783;52.504;13.478;2022-11-20T00:58:37;0.80;91.10
44121;DHT22;29783;52.504;13.478;2022-11-20T01:03:35;0.80;90.90
44121;DHT22;29783;52.504;13.478;2022-11-20T01:06:06;0.80;90.60
44121;DHT22;29783;52.504;13.478;2022-11-20T01:08:34;0.80;90.90
44121;DHT22;29783;52.504;13.478;2022-11-20T01:11:06;0.70;91.20
44121;DHT22;29783;52.504;13.478;2022-11-20T01:13:32;0.70;91.10
44121;DHT22;29783;52.504;13.478;2022-11-20T01:16:16;0.70;90.80
44121;DHT22;29783;52.504;13.478;2022-11-20T01:18:44;0.60;91.40
44121;DHT22;29783;52.504;13.478;2022-11-20T01:21:17;0.60;91.30
44121;DHT22;29783;52.504;13.478;2022-11-20T01:23:43;0.60;91.10
44121;DHT22;29783;52.504;13.478;2022-11-20T01:26:12;0.60;91.40
44121;DHT22;29783;52.504;13.478;2022-11-20T01:28:39;0.60;91.60
44121;DHT22;29783;52.504;13.478;2022-11-20T01:31:17;0.50;91.60
44121;DHT22;29783;52.504;13.478;2022-11-20T01:33:44;0.50;91.90
44121;DHT22;29783;52.504;13.478;2022-11-20T01:36:10;0.50;91.80
44121;DHT22;29783;52.504;13.478;2022-11-20T01:38:36;0.50;91.90
44121;DHT22;29783;52.504;13.478;2022-11-20T01:41:02;0.50;91.80
44121;DHT22;29783;52.504;13.478;2022-11-20T01:43:28;0.50;91.80
44121;DHT22;29783;52.504;13.478;2022-11-20T01:46:16;0.50;92.00
44121;DHT22;29783;52.504;13.478;2022-11-20T01:48:55;0.50;92.20
44121;DHT22;29783;52.504;13.478;2022-11-20T01:51:38;0.50;92.20
44121;DHT22;29783;52.504;13.478;2022-11-20T01:54:21;0.50;92.30
44121;DHT22;29783;52.504;13.478;2022-11-20T02:00:35;0.50;92.10
44121;DHT22;29783;52.504;13.478;2022-11-20T02:17:34;0.50;91.10
44121;DHT22;29783;52.504;13.478;2022-11-20T02:27:19;0.40;90.80
44121;DHT22;29783;52.504;13.478;2022-11-20T02:30:05;0.40;90.90
44121;DHT22;29783;52.504;13.478;2022-11-20T02:32:40;0.40;91.10
44121;DHT22;29783;52.504;13.478;2022-11-20T02:35:49;0.40;91.00
44121;DHT22;29783;52.504;13.478;2022-11-20T02:45:16;0.30;90.70
44121;DHT22;29783;52.504;13.478;2022-11-20T02:47:53;0.30;90.30
44121;DHT22;29783;52.504;13.478;2022-11-20T02:53:20;0.30;90.60
44121;DHT22;29783;52.504;13.478;2022-11-20T03:20:46;0.10;90.40
44121;DHT22;29783;52.504;13.478;2022-11-20T03:40:51;0.20;90.10
44121;DHT22;29783;52.504;13.478;2022-11-20T03:43:33;0.00;90.30
44121;DHT22;29783;52.504;13.478;2022-11-20T03:53:38;0.10;90.20
44121;DHT22;29783;52.504;13.478;2022-11-20T04:06:54;0.10;90.80
44121;DHT22;29783;52.504;13.478;2022-11-20T04:09:39;0.10;90.90
44121;DHT22;29783;52.504;13.478;2022-11-20T04:12:48;0.10;90.70
44121;DHT22;29783;52.504;13.478;2022-11-20T04:19:42;0.10;90.60
44121;DHT22;29783;52.504;13.478;2022-11-20T04:22:44;0.10;90.90
44121;DHT22;29783;52.504;13.478;2022-11-20T05:06:29;-3276.70;90.10
44121;DHT22;29783;52.504;13.478;2022-11-20T05:19:18;-3276.70;90.60
44121;DHT22;29783;52.504;13.478;2022-11-20T05:35:23;0.00;90.60
44121;DHT22;29783;52.504;13.478;2022-11-20T05:41:20;0.00;90.30
44121;DHT22;29783;52.504;13.478;2022-11-20T05:43:58;0.00;90.40
44121;DHT22;29783;52.504;13.478;2022-11-20T05:53:13;0.10;90.00
44121;DHT22;29783;52.504;13.478;2022-11-20T05:56:23;0.00;90.00
44121;DHT22;29783;52.504;13.478;2022-11-20T06:06:28;0.00;90.60
44121;DHT22;29783;52.504;13.478;2022-11-20T06:12:32;0.00;91.20
44121;DHT22;29783;52.504;13.478;2022-11-20T06:15:12;0.10;91.20
44121;DHT22;29783;52.504;13.478;2022-11-20T06:35:37;0.10;90.30
44121;DHT22;29783;52.504;13.478;2022-11-20T06:38:39;0.10;89.90
44121;DHT22;29783;52.504;13.478;2022-11-20T06:41:29;0.10;89.50
44121;DHT22;29783;52.504;13.478;2022-11-20T06:44:29;0.00;89.70
44121;DHT22;29783;52.504;13.478;2022-11-20T06:51:05;0.10;89.90
44121;DHT22;29783;52.504;13.478;2022-11-20T06:53:31;0.00;89.90
44121;DHT22;29783;52.504;13.478;2022-11-20T06:56:18;0.10;89.80
44121;DHT22;29783;52.504;13.478;2022-11-20T06:59:08;0.10;89.60
44121;DHT22;29783;52.504;13.478;2022-11-20T07:05:05;0.20;89.60
44121;DHT22;29783;52.504;13.478;2022-11-20T07:08:01;0.20;89.50
44121;DHT22;29783;52.504;13.478;2022-11-20T07:14:52;0.20;88.90
44121;DHT22;29783;52.504;13.478;2022-11-20T07:17:48;0.20;88.80
44121;DHT22;29783;52.504;13.478;2022-11-20T07:20:28;0.10;89.10
44121;DHT22;29783;52.504;13.478;2022-11-20T07:33:36;0.20;89.00
44121;DHT22;29783;52.504;13.478;2022-11-20T07:43:24;0.30;88.50
44121;DHT22;29783;52.504;13.478;2022-11-20T08:04:13;0.30;87.90
44121;DHT22;29783;52.504;13.478;2022-11-20T08:16:58;0.40;86.70
44121;DHT22;29783;52.504;13.478;2022-11-20T08:37:09;0.80;86.50
44121;DHT22;29783;52.504;13.478;2022-11-20T08:40:02;0.80;86.10
44121;DHT22;29783;52.504;13.478;2022-11-20T08:46:15;0.80;86.70
44121;DHT22;29783;52.504;13.478;2022-11-20T08:49:19;0.70;86.60
44121;DHT22;29783;52.504;13.478;2022-11-20T08:52:07;0.60;86.60
44121;DHT22;29783;52.504;13.478;2022-11-20T08:55:05;0.70;87.30
44121;DHT22;29783;52.504;13.478;2022-11-20T08:58:10;0.80;87.00
44121;DHT22;29783;52.504;13.478;2022-11-20T09:04:23;0.90;87.00
44121;DHT22;29783;52.504;13.478;2022-11-20T09:20:41;1.00;86.50
44121;DHT22;29783;52.504;13.478;2022-11-20T09:23:30;1.00;86.60
44121;DHT22;29783;52.504;13.478;2022-11-20T09:26:19;1.10;86.20
44121;DHT22;29783;52.504;13.478;2022-11-20T09:44:37;1.10;85.90
44121;DHT22;29783;52.504;13.478;2022-11-20T09:47:26;1.20;85.70
44121;DHT22;29783;52.504;13.478;2022-11-20T09:52:22;1.30;85.00
44121;DHT22;29783;52.504;13.478;2022-11-20T09:54:56;1.20;84.70
44121;DHT22;29783;52.504;13.478;2022-11-20T09:57:27;1.30;84.00
44121;DHT22;29783;52.504;13.478;2022-11-20T10:00:00;1.40;84.30
44121;DHT22;29783;52.504;13.478;2022-11-20T10:05:18;1.30;83.70
44121;DHT22;29783;52.504;13.478;2022-11-20T10:07:50;1.40;83.70
44121;DHT22;29783;52.504;13.478;2022-11-20T10:10:39;1.50;84.00
44121;DHT22;29783;52.504;13.478;2022-11-20T10:13:31;1.60;82.60
44121;DHT22;29783;52.504;13.478;2022-11-20T10:16:26;1.50;82.70
44121;DHT22;29783;52.504;13.478;2022-11-20T10:30:19;1.30;83.30
44121;DHT22;29783;52.504;13.478;2022-11-20T10:32:50;1.40;83.00
44121;DHT22;29783;52.504;13.478;2022-11-20T10:38:18;1.30;83.40
44121;DHT22;29783;52.504;13.478;2022-11-20T10:40:48;1.30;83.50
44121;DHT22;29783;52.504;13.478;2022-11-20T10:43:32;1.30;83.70
44121;DHT22;29783;52.504;13.478;2022-11-20T10:46:19;1.30;83.60
44121;DHT22;29783;52.504;13.478;2022-11-20T10:48:51;1.30;83.40
44121;DHT22;29783;52.504;13.478;2022-11-20T10:54:59;1.50;83.70
44121;DHT22;29783;52.504;13.478;2022-11-20T11:00:06;1.60;82.40
44121;DHT22;29783;52.504;13.478;2022-11-20T11:02:41;1.60;82.70
44121;DHT22;29783;52.504;13.478;2022-11-20T11:07:39;1.60;82.50
44121;DHT22;29783;52.504;13.478;2022-11-20T11:10:36;1.60;82.70
44121;DHT22;29783;52.504;13.478;2022-11-20T11:13:07;1.70;82.70
44121;DHT22;29783;52.504;13.478;2022-11-20T11:15:40;1.80;82.30
44121;DHT22;29783;52.504;13.478;2022-11-20T11:18:29;2.10;82.20
44121;DHT22;29783;52.504;13.478;2022-11-20T11:20:57;2.40;80.90
44121;DHT22;29783;52.504;13.478;2022-11-20T11:23:42;2.50;80.10
44121;DHT22;29783;52.504;13.478;2022-11-20T11:26:20;2.70;79.40
44121;DHT22;29783;52.504;13.478;2022-11-20T11:28:57;2.80;78.80
44121;DHT22;29783;52.504;13.478;2022-11-20T11:33:50;2.80;78.30
44121;DHT22;29783;52.504;13.478;2022-11-20T11:36:23;2.60;78.20
44121;DHT22;29783;52.504;13.478;2022-11-20T11:38:52;2.50;78.80
44121;DHT22;29783;52.504;13.478;2022-11-20T11:41:22;2.30;79.40
44121;DHT22;29783;52.504;13.478;2022-11-20T11:57:47;2.10;80.70
44121;DHT22;29783;52.504;13.478;2022-11-20T12:03:44;2.00;81.10
44121;DHT22;29783;52.504;13.478;2022-11-20T12:15:44;1.70;84.60
44121;DHT22;29783;52.504;13.478;2022-11-20T12:26:02;1.80;84.80
44121;DHT22;29783;52.504;13.478;2022-11-20T13:26:41;2.30;82.00
44121;DHT22;29783;52.504;13.478;2022-11-20T13:40:20;3.20;77.70
44121;DHT22;29783;52.504;13.478;2022-11-20T14:24:19;1.90;84.20
44121;DHT22;29783;52.504;13.478;2022-11-20T14:26:46;1.90;84.50
44121;DHT22;29783;52.504;13.478;2022-11-20T14:29:28;1.90;84.60
44121;DHT22;29783;52.504;13.478;2022-11-20T14:31:55;1.80;84.90
44121;DHT22;29783;52.504;13.478;2022-11-20T14:34:25;1.90;85.10
44121;DHT22;29783;52.504;13.478;2022-11-20T14:36:57;1.90;84.50
44121;DHT22;29783;52.504;13.478;2022-11-20T14:39:40;1.80;84.70
44121;DHT22;29783;52.504;13.478;2022-11-20T14:42:17;1.80;84.60
44121;DHT22;29783;52.504;13.478;2022-11-20T14:44:44;1.80;84.70
44121;DHT22;29783;52.504;13.478;2022-11-20T14:47:12;1.80;84.50
44121;DHT22;29783;52.504;13.478;2022-11-20T14:49:38;1.70;84.50
44121;DHT22;29783;52.504;13.478;2022-11-20T14:52:20;1.60;84.20
44121;DHT22;29783;52.504;13.478;2022-11-20T14:54:48;1.50;83.60
44121;DHT22;29783;52.504;13.478;2022-11-20T15:00:21;1.50;84.00
44121;DHT22;29783;52.504;13.478;2022-11-20T15:02:49;1.40;84.20
44121;DHT22;29783;52.504;13.478;2022-11-20T15:05:16;1.40;83.80
44121;DHT22;29783;52.504;13.478;2022-11-20T15:07:47;1.40;83.30
44121;DHT22;29783;52.504;13.478;2022-11-20T15:10:27;1.40;83.20
44121;DHT22;29783;52.504;13.478;2022-11-20T15:13:03;1.40;83.00
44121;DHT22;29783;52.504;13.478;2022-11-20T15:18:15;1.40;83.60
44121;DHT22;29783;52.504;13.478;2022-11-20T15:20:42;1.40;83.90
44121;DHT22;29783;52.504;13.478;2022-11-20T15:23:14;1.40;84.00
44121;DHT22;29783;52.504;13.478;2022-11-20T15:25:41;1.40;83.80
44121;DHT22;29783;52.504;13.478;2022-11-20T15:28:23;1.40;83.80
44121;DHT22;29783;52.504;13.478;2022-11-20T15:30:52;1.40;84.10
44121;DHT22;29783;52.504;13.478;2022-11-20T15:33:18;1.40;84.10
44121;DHT22;29783;52.504;13.478;2022-11-20T15:35:44;1.50;83.40
44121;DHT22;29783;52.504;13.478;2022-11-20T15:38:10;1.40;83.20
44121;DHT22;29783;52.504;13.478;2022-11-20T15:40:36;1.50;82.80
44121;DHT22;29783;52.504;13.478;2022-11-20T15:43:02;1.40;83.20
44121;DHT22;29783;52.504;13.478;2022-11-20T15:45:31;1.40;83.60
44121;DHT22;29783;52.504;13.478;2022-11-20T15:47:59;1.50;83.50
44121;DHT22;29783;52.504;13.478;2022-11-20T15:50:33;1.50;83.40
44121;DHT22;29783;52.504;13.478;2022-11-20T15:53:00;1.50;83.50
44121;DHT22;29783;52.504;13.478;2022-11-20T15:55:26;1.40;83.70
44121;DHT22;29783;52.504;13.478;2022-11-20T15:57:52;1.40;83.70
44121;DHT22;29783;52.504;13.478;2022-11-20T16:00:17;1.50;83.80
44121;DHT22;29783;52.504;13.478;2022-11-20T16:02:43;1.50;83.90
44121;DHT22;29783;52.504;13.478;2022-11-20T16:05:11;1.50;83.70
44121;DHT22;29783;52.504;13.478;2022-11-20T16:07:37;1.50;83.80
44121;DHT22;29783;52.504;13.478;2022-11-20T16:10:03;1.50;83.90
44121;DHT22;29783;52.504;13.478;2022-11-20T16:12:29;1.30;84.10
44121;DHT22;29783;52.504;13.478;2022-11-20T16:15:13;1.10;84.60
44121;DHT22;29783;52.504;13.478;2022-11-20T16:18:08;1.00;84.90
44121;DHT22;29783;52.504;13.478;2022-11-20T16:20:34;0.80;85.70
44121;DHT22;29783;52.504;13.478;2022-11-20T16:23:00;0.70;86.30
44121;DHT22;29783;52.504;13.478;2022-11-20T16:25:27;0.60;86.70
44121;DHT22;29783;52.504;13.478;2022-11-20T16:27:53;0.60;87.00
44121;DHT22;29783;52.504;13.478;2022-11-20T16:30:19;0.50;87.10
44121;DHT22;29783;52.504;13.478;2022-11-20T16:32:44;0.50;87.50
44121;DHT22;29783;52.504;13.478;2022-11-20T16:35:10;0.50;87.50
44121;DHT22;29783;52.504;13.478;2022-11-20T16:37:36;0.40;87.40
44121;DHT22;29783;52.504;13.478;2022-11-20T16:40:02;0.30;87.70
44121;DHT22;29783;52.504;13.478;2022-11-20T16:42:33;0.30;88.00
44121;DHT22;29783;52.504;13.478;2022-11-20T16:44:59;0.30;87.70
44121;DHT22;29783;52.504;13.478;2022-11-20T16:47:25;0.20;87.60
44121;DHT22;29783;52.504;13.478;2022-11-20T16:49:51;0.20;87.90
44121;DHT22;29783;52.504;13.478;2022-11-20T16:52:16;0.20;87.50
44121;DHT22;29783;52.504;13.478;2022-11-20T16:54:42;0.20;87.50
44121;DHT22;29783;52.504;13.478;2022-11-20T16:57:10;0.10;87.60
44121;DHT22;29783;52.504;13.478;2022-11-20T16:59:36;0.00;88.30
44121;DHT22;29783;52.504;13.478;2022-11-20T17:02:02;0.00;88.30
44121;DHT22;29783;52.504;13.478;2022-11-20T17:04:28;0.10;88.50
44121;DHT22;29783;52.504;13.478;2022-11-20T17:06:54;0.20;88.20
44121;DHT22;29783;52.504;13.478;2022-11-20T17:09:20;0.20;88.00
44121;DHT22;29783;52.504;13.478;2022-11-20T17:11:49;0.30;88.00
44121;DHT22;29783;52.504;13.478;2022-11-20T17:14:15;0.30;87.90
44121;DHT22;29783;52.504;13.478;2022-11-20T17:16:41;0.40;87.70
44121;DHT22;29783;52.504;13.478;2022-11-20T17:19:07;0.40;87.30
44121;DHT22;29783;52.504;13.478;2022-11-20T17:21:34;0.40;87.20
44121;DHT22;29783;52.504;13.478;2022-11-20T17:24:08;0.40;87.00
44121;DHT22;29783;52.504;13.478;2022-11-20T17:26:34;0.30;87.10
44121;DHT22;29783;52.504;13.478;2022-11-20T17:29:12;0.30;87.20
44121;DHT22;29783;52.504;13.478;2022-11-20T17:31:39;0.40;87.30
44121;DHT22;29783;52.504;13.478;2022-11-20T17:34:07;0.50;86.90
44121;DHT22;29783;52.504;13.478;2022-11-20T17:36:33;0.50;86.60
44121;DHT22;29783;52.504;13.478;2022-11-20T17:38:59;0.50;86.60
44121;DHT22;29783;52.504;13.478;2022-11-20T17:41:26;0.50;86.80
44121;DHT22;29783;52.504;13.478;2022-11-20T17:43:58;0.50;87.20
44121;DHT22;29783;52.504;13.478;2022-11-20T17:46:26;0.50;87.50
44121;DHT22;29783;52.504;13.478;2022-11-20T17:48:51;0.50;87.60
44121;DHT22;29783;52.504;13.478;2022-11-20T17:51:23;0.60;87.40
44121;DHT22;29783;52.504;13.478;2022-11-20T17:53:51;0.60;87.20
44121;DHT22;29783;52.504;13.478;2022-11-20T17:56:17;0.70;87.30
44121;DHT22;29783;52.504;13.478;2022-11-20T17:59:07;0.70;87.40
44121;DHT22;29783;52.504;13.478;2022-11-20T18:01:33;0.80;87.20
44121;DHT22;29783;52.504;13.478;2022-11-20T18:03:59;0.80;87.20
44121;DHT22;29783;52.504;13.478;2022-11-20T18:06:26;0.80;86.80
44121;DHT22;29783;52.504;13.478;2022-11-20T18:08:52;0.90;86.50
44121;DHT22;29783;52.504;13.478;2022-11-20T18:11:23;0.90;86.50
44121;DHT22;29783;52.504;13.478;2022-11-20T18:13:55;0.90;86.30
44121;DHT22;29783;52.504;13.478;2022-11-20T18:16:56;0.90;86.30
44121;DHT22;29783;52.504;13.478;2022-11-20T18:26:12;0.60;86.80
44121;DHT22;29783;52.504;13.478;2022-11-20T18:28:38;0.60;87.00
44121;DHT22;29783;52.504;13.478;2022-11-20T18:41:13;0.80;87.00
44121;DHT22;29783;52.504;13.478;2022-11-20T18:44:11;0.90;88.10
44121;DHT22;29783;52.504;13.478;2022-11-20T18:47:05;1.30;89.70
44121;DHT22;29783;52.504;13.478;2022-11-20T18:52:28;0.90;86.50
44121;DHT22;29783;52.504;13.478;2022-11-20T18:54:55;0.80;86.40
44121;DHT22;29783;52.504;13.478;2022-11-20T18:57:27;0.80;86.40
44121;DHT22;29783;52.504;13.478;2022-11-20T18:59:55;0.70;86.50
44121;DHT22;29783;52.504;13.478;2022-11-20T19:02:35;0.70;86.40
44121;DHT22;29783;52.504;13.478;2022-11-20T19:05:07;0.70;86.60
44121;DHT22;29783;52.504;13.478;2022-11-20T19:07:41;0.50;86.90
44121;DHT22;29783;52.504;13.478;2022-11-20T19:10:33;0.40;86.90
44121;DHT22;29783;52.504;13.478;2022-11-20T19:13:28;0.30;87.40
44121;DHT22;29783;52.504;13.478;2022-11-20T19:16:00;0.00;87.80
44121;DHT22;29783;52.504;13.478;2022-11-20T19:18:35;0.00;88.70
44121;DHT22;29783;52.504;13.478;2022-11-20T19:21:16;-3276.70;89.00
44121;DHT22;29783;52.504;13.478;2022-11-20T19:23:46;-3276.70;89.30
44121;DHT22;29783;52.504;13.478;2022-11-20T19:26:12;-3276.70;89.70
44121;DHT22;29783;52.504;13.478;2022-11-20T19:28:38;0.00;89.20
44121;DHT22;29783;52.504;13.478;2022-11-20T19:31:07;0.00;88.90
44121;DHT22;29783;52.504;13.478;2022-11-20T19:33:33;0.10;88.70
44121;DHT22;29783;52.504;13.478;2022-11-20T19:36:21;0.10;88.50
44121;DHT22;29783;52.504;13.478;2022-11-20T19:38:48;0.10;88.40
44121;DHT22;29783;52.504;13.478;2022-11-20T19:41:19;0.10;88.30
44121;DHT22;29783;52.504;13.478;2022-11-20T19:43:45;0.10;88.20
44121;DHT22;29783;52.504;13.478;2022-11-20T19:46:17;0.00;88.30
44121;DHT22;29783;52.504;13.478;2022-11-20T19:48:44;0.00;88.70
44121;DHT22;29783;52.504;13.478;2022-11-20T19:51:15;-3276.70;89.20
44121;DHT22;29783;52.504;13.478;2022-11-20T19:53:42;0.00;89.30
44121;DHT22;29783;52.504;13.478;2022-11-20T19:56:08;0.00;89.10
44121;DHT22;29783;52.504;13.478;2022-11-20T19:58:34;0.00;88.60
44121;DHT22;29783;52.504;13.478;2022-11-20T20:01:11;0.10;88.60
44121;DHT22;29783;52.504;13.478;2022-11-20T20:03:38;0.20;88.60
44121;DHT22;29783;52.504;13.478;2022-11-20T20:06:06;0.20;88.40
44121;DHT22;29783;52.504;13.478;2022-11-20T20:08:32;0.10;88.40
44121;DHT22;29783;52.504;13.478;2022-11-20T20:10:58;0.10;88.50
44121;DHT22;29783;52.504;13.478;2022-11-20T20:13:25;0.20;88.20
44121;DHT22;29783;52.504;13.478;2022-11-20T20:15:51;0.20;88.20
44121;DHT22;29783;52.504;13.478;2022-11-20T20:18:17;0.20;88.60
44121;DHT22;29783;52.504;13.478;2022-11-20T20:20:43;0.30;88.20
44121;DHT22;29783;52.504;13.478;2022-11-20T20:23:09;0.30;88.00
44121;DHT22;29783;52.504;13.478;2022-11-20T20:25:35;0.30;87.80
44121;DHT22;29783;52.504;13.478;2022-11-20T20:28:04;0.30;87.90
44121;DHT22;29783;52.504;13.478;2022-11-20T20:30:30;0.20;88.00
44121;DHT22;29783;52.504;13.478;2022-11-20T20:32:55;0.20;88.40
44121;DHT22;29783;52.504;13.478;2022-11-20T20:35:21;0.00;88.50
44121;DHT22;29783;52.504;13.478;2022-11-20T20:37:47;0.00;88.80
44121;DHT22;29783;52.504;13.478;2022-11-20T20:40:13;0.00;89.10
44121;DHT22;29783;52.504;13.478;2022-11-20T20:42:39;-3276.70;89.30
44121;DHT22;29783;52.504;13.478;2022-11-20T20:45:05;0.00;89.50
44121;DHT22;29783;52.504;13.478;2022-11-20T20:47:34;-3276.70;89.50
44121;DHT22;29783;52.504;13.478;2022-11-20T20:50:01;-3276.70;89.50
44121;DHT22;29783;52.504;13.478;2022-11-20T20:52:27;-3276.70;89.50
44121;DHT22;29783;52.504;13.478;2022-11-20T20:54:54;-3276.50;89.30
44121;DHT22;29783;52.504;13.478;2022-11-20T20:57:21;-3276.30;89.40
44121;DHT22;29783;52.504;13.478;2022-11-20T20:59:50;-3276.20;90.00
44121;DHT22;29783;52.504;13.478;2022-11-20T21:02:18;-3276.10;90.30
44121;DHT22;29783;52.504;13.478;2022-11-20T21:04:44;-3276.10;90.60
44121;DHT22;29783;52.504;13.478;2022-11-20T21:07:10;-3276.00;90.90
44121;DHT22;29783;52.504;13.478;2022-11-20T21:09:36;-3276.10;91.10
44121;DHT22;29783;52.504;13.478;2022-11-20T21:12:02;-3276.00;91.00
44121;DHT22;29783;52.504;13.478;2022-11-20T21:14:28;-3276.10;91.10
44121;DHT22;29783;52.504;13.478;2022-11-20T21:16:53;-3276.00;90.90
44121;DHT22;29783;52.504;13.478;2022-11-20T21:19:19;-3275.90;91.20
44121;DHT22;29783;52.504;13.478;2022-11-20T21:21:47;-3275.90;91.50
44121;DHT22;29783;52.504;13.478;2022-11-20T21:24:34;-3275.90;91.50
44121;DHT22;29783;52.504;13.478;2022-11-20T21:27:03;-3275.90;91.60
44121;DHT22;29783;52.504;13.478;2022-11-20T21:29:50;-3275.80;91.50
44121;DHT22;29783;52.504;13.478;2022-11-20T21:32:16;-3275.60;91.70
44121;DHT22;29783;52.504;13.478;2022-11-20T21:34:48;-3275.50;91.80
44121;DHT22;29783;52.504;13.478;2022-11-20T21:37:20;-3275.40;92.20
44121;DHT22;29783;52.504;13.478;2022-11-20T21:39:46;-3275.50;92.40
44121;DHT22;29783;52.504;13.478;2022-11-20T21:42:28;-3275.40;92.40
44121;DHT22;29783;52.504;13.478;2022-11-20T21:44:58;-3275.30;92.40
44121;DHT22;29783;52.504;13.478;2022-11-20T21:47:27;-3275.20;92.50
44121;DHT22;29783;52.504;13.478;2022-11-20T21:49:53;-3275.10;92.70
44121;DHT22;29783;52.504;13.478;2022-11-20T21:52:19;-3275.10;92.80
44121;DHT22;29783;52.504;13.478;2022-11-20T21:54:45;-3275.10;93.00
44121;DHT22;29783;52.504;13.478;2022-11-20T21:57:18;-3275.10;93.20
44121;DHT22;29783;52.504;13.478;2022-11-20T21:59:44;-3275.00;93.10
44121;DHT22;29783;52.504;13.478;2022-11-20T22:02:13;-3275.00;93.10
44121;DHT22;29783;52.504;13.478;2022-11-20T22:04:39;-3274.90;93.20
44121;DHT22;29783;52.504;13.478;2022-11-20T22:07:08;-3275.00;94.00
44121;DHT22;29783;52.504;13.478;2022-11-20T22:09:37;-3275.10;93.80
44121;DHT22;29783;52.504;13.478;2022-11-20T22:12:03;-3275.10;94.20
44121;DHT22;29783;52.504;13.478;2022-11-20T22:14:32;-3275.10;94.00
44121;DHT22;29783;52.504;13.478;2022-11-20T22:17:09;-3275.10;94.10
44121;DHT22;29783;52.504;13.478;2022-11-20T22:19:37;-3274.90;93.70
44121;DHT22;29783;52.504;13.478;2022-11-20T22:22:05;-3274.80;93.80
44121;DHT22;29783;52.504;13.478;2022-11-20T22:27:53;-3274.80;94.00
44121;DHT22;29783;52.504;13.478;2022-11-20T22:30:21;-3274.70;93.90
44121;DHT22;29783;52.504;13.478;2022-11-20T22:32:49;-3274.70;94.10
44121;DHT22;29783;52.504;13.478;2022-11-20T22:35:19;-3274.70;94.00
44121;DHT22;29783;52.504;13.478;2022-11-20T22:37:48;-3274.60;94.00
44121;DHT22;29783;52.504;13.478;2022-11-20T22:40:14;-3274.50;93.80
44121;DHT22;29783;52.504;13.478;2022-11-20T22:42:45;-3274.40;93.70
44121;DHT22;29783;52.504;13.478;2022-11-20T22:45:15;-3274.40;94.10
44121;DHT22;29783;52.504;13.478;2022-11-20T22:47:40;-3274.30;94.00
44121;DHT22;29783;52.504;13.478;2022-11-20T22:50:11;-3274.30;93.80
44121;DHT22;29783;52.504;13.478;2022-11-20T22:52:38;-3274.20;93.90
44121;DHT22;29783;52.504;13.478;2022-11-20T22:55:09;-3274.20;94.00
44121;DHT22;29783;52.504;13.478;2022-11-20T22:57:44;-3274.20;94.10
44121;DHT22;29783;52.504;13.478;2022-11-20T23:00:11;-3274.30;94.20
44121;DHT22;29783;52.504;13.478;2022-11-20T23:02:43;-3274.20;94.20
44121;DHT22;29783;52.504;13.478;2022-11-20T23:05:09;-3274.30;94.40
44121;DHT22;29783;52.504;13.478;2022-11-20T23:07:35;-3274.30;94.50
44121;DHT22;29783;52.504;13.478;2022-11-20T23:10:04;-3274.40;94.60
44121;DHT22;29783;52.504;13.478;2022-11-20T23:12:33;-3274.50;94.80
44121;DHT22;29783;52.504;13.478;2022-11-20T23:15:06;-3274.60;95.00
44121;DHT22;29783;52.504;13.478;2022-11-20T23:17:32;-3274.70;95.10
44121;DHT22;29783;52.504;13.478;2022-11-20T23:19:58;-3274.80;95.00
44121;DHT22;29783;52.504;13.478;2022-11-20T23:22:32;-3274.90;94.90
44121;DHT22;29783;52.504;13.478;2022-11-20T23:25:15;-3275.00;94.80
44121;DHT22;29783;52.504;13.478;2022-11-20T23:27:44;-3275.00;94.60
44121;DHT22;29783;52.504;13.478;2022-11-20T23:30:18;-3275.10;94.50
44121;DHT22;29783;52.504;13.478;2022-11-20T23:32:47;-3275.10;94.40
44121;DHT22;29783;52.504;13.478;2022-11-20T23:35:15;-3275.20;94.30
44121;DHT22;29783;52.504;13.478;2022-11-20T23:37:42;-3275.20;94.10
44121;DHT22;29783;52.504;13.478;2022-11-20T23:40:14;-3275.20;94.00
44121;DHT22;29783;52.504;13.478;2022-11-20T23:42:46;-3275.20;93.80
44121;DHT22;29783;52.504;13.478;2022-11-20T23:45:30;-3275.20;93.60
44121;DHT22;29783;52.504;13.478;2022-11-20T23:47:57;-3275.20;93.50
44121;DHT22;29783;52.504;13.478;2022-11-20T23:50:22;-3275.30;93.70
44121;DHT22;29783;52.504;13.478;2022-11-20T23:52:50;-3275.30;93.80
44121;DHT22;29783;52.504;13.478;2022-11-20T23:55:19;-3275.30;93.70
44121;DHT22;29783;52.504;13.478;2022-11-20T23:57:54;-3275.40;93.40
